sensor_id;sensor_type;location;lat;lon;timestamp;P1;durP1;ratioP1;P2;durP2;ratioP2
66933;SDS011;53846;51.984;5.890;2022-11-15T00:00:06;54.50;;;51.47;;
66933;SDS011;53846;51.984;5.890;2022-11-15T00:02:58;44.63;;;42.53;;
66933;SDS011;53846;51.984;5.890;2022-11-15T00:05:45;51.97;;;49.50;;
66933;SDS011;53846;51.984;5.890;2022-11-15T00:08:33;62.30;;;59.27;;
66933;SDS011;53846;51.984;5.890;2022-11-15T00:11:21;87.07;;;82.80;;
66933;SDS011;53846;51.984;5.890;2022-11-15T00:14:09;72.83;;;69.10;;
66933;SDS011;53846;51.984;5.890;2022-11-15T00:16:57;38.80;;;36.97;;
66933;SDS011;53846;51.984;5.890;2022-11-15T00:19:47;34.60;;;32.90;;
66933;SDS011;53846;51.984;5.890;2022-11-15T00:22:35;38.93;;;36.97;;
66933;SDS011;53846;51.984;5.890;2022-11-15T00:25:23;35.90;;;33.77;;
66933;SDS011;53846;51.984;5.890;2022-11-15T00:28:11;24.83;;;23.63;;
66933;SDS011;53846;51.984;5.890;2022-11-15T00:31:02;27.47;;;26.17;;
66933;SDS011;53846;51.984;5.890;2022-11-15T00:33:51;24.10;;;23.00;;
66933;SDS011;53846;51.984;5.890;2022-11-15T00:36:41;26.20;;;24.93;;
66933;SDS011;53846;51.984;5.890;2022-11-15T00:39:29;25.47;;;24.27;;
66933;SDS011;53846;51.984;5.890;2022-11-15T00:42:17;23.40;;;22.20;;
66933;SDS011;53846;51.984;5.890;2022-11-15T00:45:05;28.73;;;27.40;;
66933;SDS011;53846;51.984;5.890;2022-11-15T00:47:54;35.40;;;33.60;;
66933;SDS011;53846;51.984;5.890;2022-11-15T00:50:41;35.27;;;33.57;;
66933;SDS011;53846;51.984;5.890;2022-11-15T00:53:31;35.87;;;33.57;;
66933;SDS011;53846;51.984;5.890;2022-11-15T00:56:19;28.53;;;27.20;;
66933;SDS011;53846;51.984;5.890;2022-11-15T00:59:07;33.80;;;32.17;;
66933;SDS011;53846;51.984;5.890;2022-11-15T01:01:55;35.90;;;34.20;;
66933;SDS011;53846;51.984;5.890;2022-11-15T01:04:43;29.10;;;27.77;;
66933;SDS011;53846;51.984;5.890;2022-11-15T01:07:30;31.80;;;30.30;;
66933;SDS011;53846;51.984;5.890;2022-11-15T01:10:21;28.33;;;27.00;;
66933;SDS011;53846;51.984;5.890;2022-11-15T01:13:10;30.63;;;29.17;;
66933;SDS011;53846;51.984;5.890;2022-11-15T01:15:57;59.33;;;56.10;;
66933;SDS011;53846;51.984;5.890;2022-11-15T01:18:45;51.27;;;48.20;;
66933;SDS011;53846;51.984;5.890;2022-11-15T01:21:33;42.80;;;40.73;;
66933;SDS011;53846;51.984;5.890;2022-11-15T01:24:21;37.30;;;35.50;;
66933;SDS011;53846;51.984;5.890;2022-11-15T01:27:11;47.67;;;45.10;;
66933;SDS011;53846;51.984;5.890;2022-11-15T01:29:59;41.70;;;39.70;;
66933;SDS011;53846;51.984;5.890;2022-11-15T01:32:49;34.87;;;33.07;;
66933;SDS011;53846;51.984;5.890;2022-11-15T01:35:38;42.17;;;40.00;;
66933;SDS011;53846;51.984;5.890;2022-11-15T01:38:26;58.30;;;55.50;;
66933;SDS011;53846;51.984;5.890;2022-11-15T01:41:19;43.53;;;41.37;;
66933;SDS011;53846;51.984;5.890;2022-11-15T01:47:25;57.43;;;54.60;;
66933;SDS011;53846;51.984;5.890;2022-11-15T01:50:16;66.80;;;63.30;;
66933;SDS011;53846;51.984;5.890;2022-11-15T01:53:08;84.27;;;80.07;;
66933;SDS011;53846;51.984;5.890;2022-11-15T01:55:57;67.17;;;63.90;;
66933;SDS011;53846;51.984;5.890;2022-11-15T01:58:45;67.37;;;64.07;;
66933;SDS011;53846;51.984;5.890;2022-11-15T02:01:35;74.13;;;70.53;;
66933;SDS011;53846;51.984;5.890;2022-11-15T02:04:24;72.20;;;68.70;;
66933;SDS011;53846;51.984;5.890;2022-11-15T02:07:15;69.20;;;65.83;;
66933;SDS011;53846;51.984;5.890;2022-11-15T02:10:06;74.90;;;71.27;;
66933;SDS011;53846;51.984;5.890;2022-11-15T02:12:56;80.63;;;76.70;;
66933;SDS011;53846;51.984;5.890;2022-11-15T02:15:49;86.60;;;82.37;;
66933;SDS011;53846;51.984;5.890;2022-11-15T02:18:49;105.43;;;100.17;;
66933;SDS011;53846;51.984;5.890;2022-11-15T02:21:43;100.13;;;95.20;;
66933;SDS011;53846;51.984;5.890;2022-11-15T02:27:55;97.90;;;93.10;;
66933;SDS011;53846;51.984;5.890;2022-11-15T02:30:57;104.20;;;98.93;;
66933;SDS011;53846;51.984;5.890;2022-11-15T02:33:52;113.60;;;107.87;;
66933;SDS011;53846;51.984;5.890;2022-11-15T02:36:47;120.47;;;114.40;;
66933;SDS011;53846;51.984;5.890;2022-11-15T02:39:41;114.53;;;108.70;;
66933;SDS011;53846;51.984;5.890;2022-11-15T02:42:36;130.83;;;124.27;;
66933;SDS011;53846;51.984;5.890;2022-11-15T02:45:44;141.73;;;134.40;;
66933;SDS011;53846;51.984;5.890;2022-11-15T02:48:38;126.37;;;120.07;;
66933;SDS011;53846;51.984;5.890;2022-11-15T02:51:27;124.27;;;118.07;;
66933;SDS011;53846;51.984;5.890;2022-11-15T02:54:17;136.20;;;129.23;;
66933;SDS011;53846;51.984;5.890;2022-11-15T02:57:10;128.77;;;122.20;;
66933;SDS011;53846;51.984;5.890;2022-11-15T03:00:04;133.97;;;127.17;;
66933;SDS011;53846;51.984;5.890;2022-11-15T03:02:57;143.07;;;135.83;;
66933;SDS011;53846;51.984;5.890;2022-11-15T03:06:04;137.13;;;130.23;;
66933;SDS011;53846;51.984;5.890;2022-11-15T03:09:02;159.90;;;151.67;;
66933;SDS011;53846;51.984;5.890;2022-11-15T03:11:55;130.60;;;124.03;;
66933;SDS011;53846;51.984;5.890;2022-11-15T03:14:48;138.83;;;131.83;;
66933;SDS011;53846;51.984;5.890;2022-11-15T03:17:42;153.60;;;145.80;;
66933;SDS011;53846;51.984;5.890;2022-11-15T03:20:34;147.90;;;140.30;;
66933;SDS011;53846;51.984;5.890;2022-11-15T03:23:26;131.83;;;125.27;;
66933;SDS011;53846;51.984;5.890;2022-11-15T03:26:16;135.63;;;128.70;;
66933;SDS011;53846;51.984;5.890;2022-11-15T03:29:09;123.40;;;117.20;;
66933;SDS011;53846;51.984;5.890;2022-11-15T03:32:01;99.27;;;94.27;;
66933;SDS011;53846;51.984;5.890;2022-11-15T03:34:53;49.25;;;46.75;;
66933;SDS011;53846;51.984;5.890;2022-11-15T03:37:45;84.40;;;80.27;;
66933;SDS011;53846;51.984;5.890;2022-11-15T03:40:40;101.67;;;96.60;;
66933;SDS011;53846;51.984;5.890;2022-11-15T03:43:30;79.70;;;75.80;;
66933;SDS011;53846;51.984;5.890;2022-11-15T03:46:24;43.73;;;41.67;;
66933;SDS011;53846;51.984;5.890;2022-11-15T03:49:17;66.70;;;63.43;;
66933;SDS011;53846;51.984;5.890;2022-11-15T03:52:09;68.20;;;64.80;;
66933;SDS011;53846;51.984;5.890;2022-11-15T03:54:58;66.20;;;63.00;;
66933;SDS011;53846;51.984;5.890;2022-11-15T03:57:52;71.63;;;68.07;;
66933;SDS011;53846;51.984;5.890;2022-11-15T04:00:42;70.43;;;66.97;;
66933;SDS011;53846;51.984;5.890;2022-11-15T04:03:30;46.47;;;43.83;;
66933;SDS011;53846;51.984;5.890;2022-11-15T04:06:18;60.57;;;57.60;;
66933;SDS011;53846;51.984;5.890;2022-11-15T04:09:05;63.77;;;60.67;;
66933;SDS011;53846;51.984;5.890;2022-11-15T04:11:53;72.17;;;68.53;;
66933;SDS011;53846;51.984;5.890;2022-11-15T04:14:44;35.23;;;33.57;;
66933;SDS011;53846;51.984;5.890;2022-11-15T04:17:52;45.13;;;42.93;;
66933;SDS011;53846;51.984;5.890;2022-11-15T04:20:40;36.17;;;34.10;;
66933;SDS011;53846;51.984;5.890;2022-11-15T04:23:41;54.17;;;51.57;;
66933;SDS011;53846;51.984;5.890;2022-11-15T04:26:41;51.13;;;48.67;;
66933;SDS011;53846;51.984;5.890;2022-11-15T04:29:28;44.17;;;41.97;;
66933;SDS011;53846;51.984;5.890;2022-11-15T04:32:24;31.47;;;29.97;;
66933;SDS011;53846;51.984;5.890;2022-11-15T04:35:12;70.40;;;66.80;;
66933;SDS011;53846;51.984;5.890;2022-11-15T04:38:00;80.50;;;76.53;;
66933;SDS011;53846;51.984;5.890;2022-11-15T04:40:50;77.30;;;73.40;;
66933;SDS011;53846;51.984;5.890;2022-11-15T04:43:38;91.83;;;87.00;;
66933;SDS011;53846;51.984;5.890;2022-11-15T04:46:26;107.57;;;102.13;;
66933;SDS011;53846;51.984;5.890;2022-11-15T04:49:16;89.27;;;84.87;;
66933;SDS011;53846;51.984;5.890;2022-11-15T04:52:04;86.37;;;82.10;;
66933;SDS011;53846;51.984;5.890;2022-11-15T04:54:52;65.50;;;62.30;;
66933;SDS011;53846;51.984;5.890;2022-11-15T04:57:40;100.53;;;95.57;;
66933;SDS011;53846;51.984;5.890;2022-11-15T05:00:27;68.33;;;64.93;;
66933;SDS011;53846;51.984;5.890;2022-11-15T05:03:16;91.47;;;86.87;;
66933;SDS011;53846;51.984;5.890;2022-11-15T05:06:19;89.80;;;85.27;;
66933;SDS011;53846;51.984;5.890;2022-11-15T05:09:07;62.43;;;59.13;;
66933;SDS011;53846;51.984;5.890;2022-11-15T05:11:54;63.83;;;60.73;;
66933;SDS011;53846;51.984;5.890;2022-11-15T05:14:42;60.63;;;57.63;;
66933;SDS011;53846;51.984;5.890;2022-11-15T05:17:30;37.83;;;36.03;;
66933;SDS011;53846;51.984;5.890;2022-11-15T05:20:18;60.03;;;57.07;;
66933;SDS011;53846;51.984;5.890;2022-11-15T05:23:08;48.57;;;46.27;;
66933;SDS011;53846;51.984;5.890;2022-11-15T05:25:58;66.80;;;63.53;;
66933;SDS011;53846;51.984;5.890;2022-11-15T05:28:46;107.27;;;101.90;;
66933;SDS011;53846;51.984;5.890;2022-11-15T05:31:33;57.13;;;54.17;;
66933;SDS011;53846;51.984;5.890;2022-11-15T05:34:26;73.13;;;69.47;;
66933;SDS011;53846;51.984;5.890;2022-11-15T05:37:14;69.83;;;66.23;;
66933;SDS011;53846;51.984;5.890;2022-11-15T05:40:06;60.43;;;57.47;;
66933;SDS011;53846;51.984;5.890;2022-11-15T05:42:55;45.57;;;43.37;;
66933;SDS011;53846;51.984;5.890;2022-11-15T05:45:43;91.63;;;87.10;;
66933;SDS011;53846;51.984;5.890;2022-11-15T05:48:31;37.28;;;35.38;;
66933;SDS011;53846;51.984;5.890;2022-11-15T05:51:20;60.27;;;57.27;;
66933;SDS011;53846;51.984;5.890;2022-11-15T05:54:09;114.10;;;108.17;;
66933;SDS011;53846;51.984;5.890;2022-11-15T05:57:00;108.23;;;102.40;;
66933;SDS011;53846;51.984;5.890;2022-11-15T05:59:48;102.27;;;97.20;;
66933;SDS011;53846;51.984;5.890;2022-11-15T06:02:36;50.07;;;47.67;;
66933;SDS011;53846;51.984;5.890;2022-11-15T06:05:23;99.10;;;94.20;;
66933;SDS011;53846;51.984;5.890;2022-11-15T06:08:11;81.10;;;77.10;;
66933;SDS011;53846;51.984;5.890;2022-11-15T06:11:02;106.80;;;101.47;;
66933;SDS011;53846;51.984;5.890;2022-11-15T06:13:53;125.00;;;118.03;;
66933;SDS011;53846;51.984;5.890;2022-11-15T06:16:41;114.07;;;108.30;;
66933;SDS011;53846;51.984;5.890;2022-11-15T06:19:29;74.73;;;70.93;;
66933;SDS011;53846;51.984;5.890;2022-11-15T06:22:17;74.73;;;71.00;;
66933;SDS011;53846;51.984;5.890;2022-11-15T06:25:04;79.87;;;75.80;;
66933;SDS011;53846;51.984;5.890;2022-11-15T06:27:53;110.53;;;104.93;;
66933;SDS011;53846;51.984;5.890;2022-11-15T06:30:44;114.70;;;108.97;;
66933;SDS011;53846;51.984;5.890;2022-11-15T06:33:32;121.07;;;114.67;;
66933;SDS011;53846;51.984;5.890;2022-11-15T06:36:20;100.20;;;95.20;;
66933;SDS011;53846;51.984;5.890;2022-11-15T06:39:08;115.93;;;110.17;;
66933;SDS011;53846;51.984;5.890;2022-11-15T06:41:55;109.27;;;103.57;;
66933;SDS011;53846;51.984;5.890;2022-11-15T06:44:43;146.60;;;139.17;;
66933;SDS011;53846;51.984;5.890;2022-11-15T06:47:33;135.50;;;128.53;;
66933;SDS011;53846;51.984;5.890;2022-11-15T06:50:21;119.57;;;113.57;;
66933;SDS011;53846;51.984;5.890;2022-11-15T06:53:09;131.33;;;124.70;;
66933;SDS011;53846;51.984;5.890;2022-11-15T06:55:58;121.30;;;115.00;;
66933;SDS011;53846;51.984;5.890;2022-11-15T06:58:47;131.53;;;124.83;;
66933;SDS011;53846;51.984;5.890;2022-11-15T07:01:34;134.40;;;127.50;;
66933;SDS011;53846;51.984;5.890;2022-11-15T07:04:25;112.23;;;106.63;;
66933;SDS011;53846;51.984;5.890;2022-11-15T07:07:13;126.63;;;120.23;;
66933;SDS011;53846;51.984;5.890;2022-11-15T07:10:00;125.93;;;119.57;;
66933;SDS011;53846;51.984;5.890;2022-11-15T07:12:48;110.77;;;105.10;;
66933;SDS011;53846;51.984;5.890;2022-11-15T07:15:36;61.53;;;58.57;;
66933;SDS011;53846;51.984;5.890;2022-11-15T07:18:24;94.07;;;89.40;;
66933;SDS011;53846;51.984;5.890;2022-11-15T07:21:14;86.30;;;82.03;;
66933;SDS011;53846;51.984;5.890;2022-11-15T07:24:03;78.73;;;74.87;;
66933;SDS011;53846;51.984;5.890;2022-11-15T07:26:51;79.57;;;75.47;;
66933;SDS011;53846;51.984;5.890;2022-11-15T07:29:38;55.80;;;52.77;;
66933;SDS011;53846;51.984;5.890;2022-11-15T07:32:26;52.63;;;50.03;;
66933;SDS011;53846;51.984;5.890;2022-11-15T07:35:14;59.30;;;56.20;;
66933;SDS011;53846;51.984;5.890;2022-11-15T07:38:04;103.83;;;98.63;;
66933;SDS011;53846;51.984;5.890;2022-11-15T07:40:55;79.57;;;75.60;;
66933;SDS011;53846;51.984;5.890;2022-11-15T07:43:44;23.87;;;22.67;;
66933;SDS011;53846;51.984;5.890;2022-11-15T07:46:31;111.10;;;105.50;;
66933;SDS011;53846;51.984;5.890;2022-11-15T07:49:19;166.20;;;157.57;;
66933;SDS011;53846;51.984;5.890;2022-11-15T07:52:07;142.80;;;135.53;;
66933;SDS011;53846;51.984;5.890;2022-11-15T07:54:57;145.43;;;138.07;;
66933;SDS011;53846;51.984;5.890;2022-11-15T07:57:45;134.80;;;127.87;;
66933;SDS011;53846;51.984;5.890;2022-11-15T08:00:33;170.00;;;161.17;;
66933;SDS011;53846;51.984;5.890;2022-11-15T08:03:21;171.90;;;163.10;;
66933;SDS011;53846;51.984;5.890;2022-11-15T08:06:09;167.50;;;158.20;;
66933;SDS011;53846;51.984;5.890;2022-11-15T08:08:56;149.17;;;141.70;;
66933;SDS011;53846;51.984;5.890;2022-11-15T08:11:46;128.80;;;122.30;;
66933;SDS011;53846;51.984;5.890;2022-11-15T08:14:34;136.47;;;129.53;;
66933;SDS011;53846;51.984;5.890;2022-11-15T08:17:22;68.33;;;65.00;;
66933;SDS011;53846;51.984;5.890;2022-11-15T08:20:10;74.73;;;71.03;;
66933;SDS011;53846;51.984;5.890;2022-11-15T08:22:58;94.80;;;90.10;;
66933;SDS011;53846;51.984;5.890;2022-11-15T08:25:48;77.43;;;73.57;;
66933;SDS011;53846;51.984;5.890;2022-11-15T08:28:38;60.47;;;57.47;;
66933;SDS011;53846;51.984;5.890;2022-11-15T08:31:26;55.93;;;53.13;;
66933;SDS011;53846;51.984;5.890;2022-11-15T08:34:14;58.80;;;55.90;;
66933;SDS011;53846;51.984;5.890;2022-11-15T08:37:01;40.07;;;38.17;;
66933;SDS011;53846;51.984;5.890;2022-11-15T08:39:49;73.17;;;69.57;;
66933;SDS011;53846;51.984;5.890;2022-11-15T08:42:37;65.30;;;62.10;;
66933;SDS011;53846;51.984;5.890;2022-11-15T08:45:27;96.70;;;91.73;;
66933;SDS011;53846;51.984;5.890;2022-11-15T08:48:14;75.47;;;71.73;;
66933;SDS011;53846;51.984;5.890;2022-11-15T08:51:02;50.07;;;47.47;;
66933;SDS011;53846;51.984;5.890;2022-11-15T08:53:50;49.77;;;47.27;;
66933;SDS011;53846;51.984;5.890;2022-11-15T08:56:38;55.73;;;52.93;;
66933;SDS011;53846;51.984;5.890;2022-11-15T08:59:26;91.27;;;86.67;;
66933;SDS011;53846;51.984;5.890;2022-11-15T09:02:16;115.27;;;109.50;;
66933;SDS011;53846;51.984;5.890;2022-11-15T09:05:04;98.07;;;92.97;;
66933;SDS011;53846;51.984;5.890;2022-11-15T09:07:53;122.73;;;116.50;;
66933;SDS011;53846;51.984;5.890;2022-11-15T09:10:41;26.20;;;24.90;;
66933;SDS011;53846;51.984;5.890;2022-11-15T09:13:29;28.50;;;27.17;;
66933;SDS011;53846;51.984;5.890;2022-11-15T09:16:17;59.90;;;57.00;;
66933;SDS011;53846;51.984;5.890;2022-11-15T09:19:07;57.43;;;54.67;;
66933;SDS011;53846;51.984;5.890;2022-11-15T09:21:55;32.90;;;31.30;;
66933;SDS011;53846;51.984;5.890;2022-11-15T09:24:42;48.27;;;45.87;;
66933;SDS011;53846;51.984;5.890;2022-11-15T09:27:30;65.53;;;62.27;;
66933;SDS011;53846;51.984;5.890;2022-11-15T09:30:18;51.70;;;49.20;;
66933;SDS011;53846;51.984;5.890;2022-11-15T09:33:07;35.97;;;33.70;;
66933;SDS011;53846;51.984;5.890;2022-11-15T09:36:01;29.37;;;27.97;;
66933;SDS011;53846;51.984;5.890;2022-11-15T09:38:51;91.63;;;87.10;;
66933;SDS011;53846;51.984;5.890;2022-11-15T09:41:50;119.93;;;113.67;;
66933;SDS011;53846;51.984;5.890;2022-11-15T09:44:53;113.50;;;107.83;;
66933;SDS011;53846;51.984;5.890;2022-11-15T09:47:55;103.63;;;98.50;;
66933;SDS011;53846;51.984;5.890;2022-11-15T09:50:56;115.67;;;109.37;;
66933;SDS011;53846;51.984;5.890;2022-11-15T09:53:32;105.07;;;99.73;;
66933;SDS011;53846;51.984;5.890;2022-11-15T09:56:11;119.57;;;113.50;;
66933;SDS011;53846;51.984;5.890;2022-11-15T09:58:44;177.33;;;168.10;;
66933;SDS011;53846;51.984;5.890;2022-11-15T10:01:26;151.83;;;143.83;;
66933;SDS011;53846;51.984;5.890;2022-11-15T10:04:04;61.13;;;57.87;;
66933;SDS011;53846;51.984;5.890;2022-11-15T10:06:34;87.33;;;82.90;;
66933;SDS011;53846;51.984;5.890;2022-11-15T10:09:14;79.30;;;75.33;;
66933;SDS011;53846;51.984;5.890;2022-11-15T10:11:47;74.43;;;70.73;;
66933;SDS011;53846;51.984;5.890;2022-11-15T10:14:18;97.43;;;92.53;;
66933;SDS011;53846;51.984;5.890;2022-11-15T10:19:46;58.43;;;55.40;;
66933;SDS011;53846;51.984;5.890;2022-11-15T10:22:35;34.03;;;32.23;;
66933;SDS011;53846;51.984;5.890;2022-11-15T10:25:24;37.30;;;35.50;;
66933;SDS011;53846;51.984;5.890;2022-11-15T10:27:55;20.87;;;19.93;;
66933;SDS011;53846;51.984;5.890;2022-11-15T10:30:30;23.40;;;22.30;;
66933;SDS011;53846;51.984;5.890;2022-11-15T10:33:08;24.73;;;23.23;;
66933;SDS011;53846;51.984;5.890;2022-11-15T10:35:49;34.07;;;32.43;;
66933;SDS011;53846;51.984;5.890;2022-11-15T10:38:48;46.37;;;44.07;;
66933;SDS011;53846;51.984;5.890;2022-11-15T10:41:29;54.57;;;51.90;;
66933;SDS011;53846;51.984;5.890;2022-11-15T10:44:02;43.57;;;41.43;;
66933;SDS011;53846;51.984;5.890;2022-11-15T10:46:38;74.57;;;70.80;;
66933;SDS011;53846;51.984;5.890;2022-11-15T10:49:12;99.03;;;93.97;;
66933;SDS011;53846;51.984;5.890;2022-11-15T10:51:43;65.27;;;61.97;;
66933;SDS011;53846;51.984;5.890;2022-11-15T10:54:16;52.67;;;50.03;;
66933;SDS011;53846;51.984;5.890;2022-11-15T10:56:57;35.17;;;33.17;;
66933;SDS011;53846;51.984;5.890;2022-11-15T10:59:29;63.65;;;60.53;;
66933;SDS011;53846;51.984;5.890;2022-11-15T11:02:00;77.50;;;73.25;;
66933;SDS011;53846;51.984;5.890;2022-11-15T11:04:30;68.03;;;64.72;;
66933;SDS011;53846;51.984;5.890;2022-11-15T11:07:19;70.53;;;67.13;;
66933;SDS011;53846;51.984;5.890;2022-11-15T11:09:56;68.45;;;65.18;;
66933;SDS011;53846;51.984;5.890;2022-11-15T11:12:30;67.72;;;64.47;;
66933;SDS011;53846;51.984;5.890;2022-11-15T11:15:09;72.30;;;68.80;;
66933;SDS011;53846;51.984;5.890;2022-11-15T11:17:47;63.00;;;59.90;;
66933;SDS011;53846;51.984;5.890;2022-11-15T11:20:30;53.85;;;51.28;;
66933;SDS011;53846;51.984;5.890;2022-11-15T11:23:14;59.20;;;56.38;;
66933;SDS011;53846;51.984;5.890;2022-11-15T11:25:54;59.03;;;56.20;;
66933;SDS011;53846;51.984;5.890;2022-11-15T11:28:37;54.63;;;52.03;;
66933;SDS011;53846;51.984;5.890;2022-11-15T11:31:17;38.13;;;36.35;;
66933;SDS011;53846;51.984;5.890;2022-11-15T11:33:56;23.02;;;21.98;;
66933;SDS011;53846;51.984;5.890;2022-11-15T11:36:36;28.50;;;27.17;;
66933;SDS011;53846;51.984;5.890;2022-11-15T11:39:18;18.60;;;17.80;;
66933;SDS011;53846;51.984;5.890;2022-11-15T11:41:59;18.42;;;17.63;;
66933;SDS011;53846;51.984;5.890;2022-11-15T11:44:42;12.65;;;12.10;;
66933;SDS011;53846;51.984;5.890;2022-11-15T11:47:21;8.07;;;7.75;;
66933;SDS011;53846;51.984;5.890;2022-11-15T11:49:53;6.47;;;6.22;;
66933;SDS011;53846;51.984;5.890;2022-11-15T11:52:28;7.43;;;7.13;;
66933;SDS011;53846;51.984;5.890;2022-11-15T11:55:02;6.68;;;6.38;;
66933;SDS011;53846;51.984;5.890;2022-11-15T11:57:41;7.35;;;7.05;;
66933;SDS011;53846;51.984;5.890;2022-11-15T12:00:20;6.57;;;6.28;;
66933;SDS011;53846;51.984;5.890;2022-11-15T12:02:55;7.13;;;6.82;;
66933;SDS011;53846;51.984;5.890;2022-11-15T12:05:34;6.03;;;5.82;;
66933;SDS011;53846;51.984;5.890;2022-11-15T12:08:14;7.55;;;7.25;;
66933;SDS011;53846;51.984;5.890;2022-11-15T12:10:53;7.22;;;6.93;;
66933;SDS011;53846;51.984;5.890;2022-11-15T12:13:29;8.23;;;7.88;;
66933;SDS011;53846;51.984;5.890;2022-11-15T12:16:06;9.55;;;9.15;;
66933;SDS011;53846;51.984;5.890;2022-11-15T12:18:40;8.20;;;7.90;;
66933;SDS011;53846;51.984;5.890;2022-11-15T12:21:13;9.10;;;8.70;;
66933;SDS011;53846;51.984;5.890;2022-11-15T12:23:48;10.27;;;9.88;;
66933;SDS011;53846;51.984;5.890;2022-11-15T12:26:22;10.15;;;9.65;;
66933;SDS011;53846;51.984;5.890;2022-11-15T12:28:54;9.98;;;9.57;;
66933;SDS011;53846;51.984;5.890;2022-11-15T12:31:30;9.90;;;9.50;;
66933;SDS011;53846;51.984;5.890;2022-11-15T12:34:13;10.60;;;10.13;;
66933;SDS011;53846;51.984;5.890;2022-11-15T12:36:57;12.38;;;11.77;;
66933;SDS011;53846;51.984;5.890;2022-11-15T12:42:35;15.02;;;14.32;;
66933;SDS011;53846;51.984;5.890;2022-11-15T12:45:23;15.82;;;15.13;;
66933;SDS011;53846;51.984;5.890;2022-11-15T12:48:21;19.65;;;18.75;;
66933;SDS011;53846;51.984;5.890;2022-11-15T12:51:05;16.77;;;16.05;;
66933;SDS011;53846;51.984;5.890;2022-11-15T12:53:34;18.10;;;17.30;;
66933;SDS011;53846;51.984;5.890;2022-11-15T12:56:17;17.58;;;16.70;;
66933;SDS011;53846;51.984;5.890;2022-11-15T12:58:52;16.75;;;15.93;;
66933;SDS011;53846;51.984;5.890;2022-11-15T13:04:28;16.65;;;15.95;;
66933;SDS011;53846;51.984;5.890;2022-11-15T13:07:01;15.93;;;15.23;;
66933;SDS011;53846;51.984;5.890;2022-11-15T13:21:00;15.68;;;14.98;;
66933;SDS011;53846;51.984;5.890;2022-11-15T13:23:54;15.60;;;14.90;;
66933;SDS011;53846;51.984;5.890;2022-11-15T13:26:23;16.65;;;15.95;;
66933;SDS011;53846;51.984;5.890;2022-11-15T13:28:53;15.60;;;14.90;;
66933;SDS011;53846;51.984;5.890;2022-11-15T13:31:26;16.77;;;16.00;;
66933;SDS011;53846;51.984;5.890;2022-11-15T13:33:59;17.83;;;17.02;;
66933;SDS011;53846;51.984;5.890;2022-11-15T13:36:31;19.20;;;18.30;;
66933;SDS011;53846;51.984;5.890;2022-11-15T13:39:05;21.80;;;20.80;;
66933;SDS011;53846;51.984;5.890;2022-11-15T13:41:44;21.42;;;20.33;;
66933;SDS011;53846;51.984;5.890;2022-11-15T13:44:19;25.23;;;24.08;;
66933;SDS011;53846;51.984;5.890;2022-11-15T13:47:02;30.65;;;29.25;;
66933;SDS011;53846;51.984;5.890;2022-11-15T13:49:33;30.55;;;29.13;;
66933;SDS011;53846;51.984;5.890;2022-11-15T13:52:04;34.05;;;32.45;;
66933;SDS011;53846;51.984;5.890;2022-11-15T13:54:37;34.77;;;33.17;;
66933;SDS011;53846;51.984;5.890;2022-11-15T13:57:10;35.45;;;33.80;;
66933;SDS011;53846;51.984;5.890;2022-11-15T13:59:44;35.67;;;34.00;;
66933;SDS011;53846;51.984;5.890;2022-11-15T14:02:16;36.23;;;34.43;;
66933;SDS011;53846;51.984;5.890;2022-11-15T14:04:49;33.83;;;32.23;;
66933;SDS011;53846;51.984;5.890;2022-11-15T14:07:24;34.97;;;33.37;;
66933;SDS011;53846;51.984;5.890;2022-11-15T14:09:57;33.40;;;31.83;;
66933;SDS011;53846;51.984;5.890;2022-11-15T14:12:49;31.43;;;30.00;;
66933;SDS011;53846;51.984;5.890;2022-11-15T14:15:24;29.13;;;27.80;;
66933;SDS011;53846;51.984;5.890;2022-11-15T14:17:56;141.40;;;134.23;;
66933;SDS011;53846;51.984;5.890;2022-11-15T14:20:30;45.97;;;43.77;;
66933;SDS011;53846;51.984;5.890;2022-11-15T14:23:01;40.10;;;38.23;;
66933;SDS011;53846;51.984;5.890;2022-11-15T14:25:34;37.57;;;35.80;;
66933;SDS011;53846;51.984;5.890;2022-11-15T14:28:07;51.43;;;48.63;;
66933;SDS011;53846;51.984;5.890;2022-11-15T14:30:57;48.03;;;45.73;;
66933;SDS011;53846;51.984;5.890;2022-11-15T14:33:28;51.23;;;48.77;;
66933;SDS011;53846;51.984;5.890;2022-11-15T14:36:02;50.97;;;48.53;;
66933;SDS011;53846;51.984;5.890;2022-11-15T14:38:33;54.03;;;51.43;;
66933;SDS011;53846;51.984;5.890;2022-11-15T14:41:05;51.43;;;48.97;;
66933;SDS011;53846;51.984;5.890;2022-11-15T14:43:38;48.87;;;46.53;;
66933;SDS011;53846;51.984;5.890;2022-11-15T14:46:07;49.73;;;47.37;;
66933;SDS011;53846;51.984;5.890;2022-11-15T14:48:37;50.53;;;48.13;;
66933;SDS011;53846;51.984;5.890;2022-11-15T14:51:09;52.17;;;49.67;;
66933;SDS011;53846;51.984;5.890;2022-11-15T14:53:40;45.10;;;42.97;;
66933;SDS011;53846;51.984;5.890;2022-11-15T14:56:12;45.13;;;43.00;;
66933;SDS011;53846;51.984;5.890;2022-11-15T14:58:42;42.77;;;40.77;;
66933;SDS011;53846;51.984;5.890;2022-11-15T15:01:12;41.37;;;39.43;;
66933;SDS011;53846;51.984;5.890;2022-11-15T15:03:44;44.17;;;42.07;;
66933;SDS011;53846;51.984;5.890;2022-11-15T15:06:13;40.30;;;38.40;;
66933;SDS011;53846;51.984;5.890;2022-11-15T15:08:43;46.10;;;43.90;;
66933;SDS011;53846;51.984;5.890;2022-11-15T15:11:16;46.23;;;43.13;;
66933;SDS011;53846;51.984;5.890;2022-11-15T15:13:49;48.93;;;46.60;;
66933;SDS011;53846;51.984;5.890;2022-11-15T15:16:18;45.93;;;43.73;;
66933;SDS011;53846;51.984;5.890;2022-11-15T15:18:47;48.13;;;45.83;;
66933;SDS011;53846;51.984;5.890;2022-11-15T15:21:18;45.80;;;43.60;;
66933;SDS011;53846;51.984;5.890;2022-11-15T15:23:49;47.50;;;45.23;;
66933;SDS011;53846;51.984;5.890;2022-11-15T15:26:22;41.37;;;39.40;;
66933;SDS011;53846;51.984;5.890;2022-11-15T15:28:52;43.73;;;41.63;;
66933;SDS011;53846;51.984;5.890;2022-11-15T15:31:21;46.50;;;44.30;;
66933;SDS011;53846;51.984;5.890;2022-11-15T15:33:50;42.73;;;40.73;;
66933;SDS011;53846;51.984;5.890;2022-11-15T15:36:19;43.97;;;41.87;;
66933;SDS011;53846;51.984;5.890;2022-11-15T15:38:48;43.27;;;41.23;;
66933;SDS011;53846;51.984;5.890;2022-11-15T15:41:18;39.37;;;37.50;;
66933;SDS011;53846;51.984;5.890;2022-11-15T15:43:49;42.93;;;40.93;;
66933;SDS011;53846;51.984;5.890;2022-11-15T15:46:19;41.83;;;39.83;;
66933;SDS011;53846;51.984;5.890;2022-11-15T15:48:49;44.03;;;41.93;;
66933;SDS011;53846;51.984;5.890;2022-11-15T15:51:18;43.03;;;41.00;;
66933;SDS011;53846;51.984;5.890;2022-11-15T15:53:47;43.70;;;41.60;;
66933;SDS011;53846;51.984;5.890;2022-11-15T15:56:18;38.13;;;36.33;;
66933;SDS011;53846;51.984;5.890;2022-11-15T15:58:50;39.83;;;37.93;;
66933;SDS011;53846;51.984;5.890;2022-11-15T16:01:21;43.40;;;41.30;;
66933;SDS011;53846;51.984;5.890;2022-11-15T16:03:50;38.97;;;37.13;;
66933;SDS011;53846;51.984;5.890;2022-11-15T16:06:32;40.57;;;38.67;;
66933;SDS011;53846;51.984;5.890;2022-11-15T16:09:08;39.00;;;37.17;;
66933;SDS011;53846;51.984;5.890;2022-11-15T16:11:40;43.57;;;41.27;;
66933;SDS011;53846;51.984;5.890;2022-11-15T16:14:12;48.43;;;46.13;;
66933;SDS011;53846;51.984;5.890;2022-11-15T16:16:41;46.30;;;44.10;;
66933;SDS011;53846;51.984;5.890;2022-11-15T16:19:10;54.00;;;51.40;;
66933;SDS011;53846;51.984;5.890;2022-11-15T16:21:40;50.90;;;48.40;;